GWW weather

Goldsboro-Wayne Municipal Airport
Goldsboro, North Carolina, United States

Public forecast

Using degrees Fahrenheit for public forecast. Weather courtesy of forecast.io.

Current aviation weather report (METAR) for Goldsboro-Wayne Municipal Airport

Retrieved 2019/11/22 01:35 UTC (0 seconds ago):

KGWW 220135Z AUTO 00000KT 10SM CLR 06/05 A3021 RMK AO2 T00580054

Closest aviation forecast (TAF) to Goldsboro-Wayne Municipal Airport

Closest forecast is Seymour Johnson Air Force Base, 7.3 nm (13.5 km) S. Retrieved 2019/11/21 21:06 UTC (4 hours ago):

TAF KGSB 212100Z 2121/2303 20005KT 9999 FEW250 QNH3020INS BECMG 2213/2214 21012G18KT 9999 BKN100 QNH3005INS BECMG 2217/2218 21012G18KT 8000 -SHRA BKN100 QNH2999INS BECMG 2221/2222 24009KT 9999 NSW BKN100 QNH2994INS TX15/2220Z TN06/2212Z